Oracle, Arizona
Current Conditions -  °F | °C
As of 12:58 AM on Saturday 25 Oct 2014 (Local Time) from KDMA Reporting Station
Clear Clear  
Wind Chill: 66°   Ceiling: Unl
Heat Index: 66°   Visibility: 10mi
Dew Point: 47°   Wind: 8mph
Humidity: 51%   Direction: 130°SE
Pressure: 30.1"   Gusts: NA
Location:  32.61°N, 110.77°W
Report Text: KDMA 250758Z AUTO 13007KT 10SM CLR 19/09 A3010 RMK AO2 SLP154 T01890086 $
Loading
Personal Weather Stations






























Interactive Weather Map
Tropical Storm Tracking
New forecast layout! Learn more

10-Day Weather Forecast

Advertisements
Track Severe Weather on mobile